Time,TemperatureF,DewpointF,PressureIn,WindDirection,WindDirectionDegrees,WindSpeedMPH,WindSpeedGustMPH,Humidity,HourlyPrecipIn,Conditions,Clouds,dailyrainin,SoftwareType,DateUTC
2013-10-03 00:00:00,64.6,58.7,29.89,North,5,1.0,2.0,81,0.00,,,0.00,VWS V14.01,2013-10-03 04:00:00,
2013-10-03 00:01:00,64.6,58.7,29.89,North,5,1.0,2.0,81,0.00,,,0.00,VWS V14.01,2013-10-03 04:01:00,
2013-10-03 00:02:00,64.6,58.7,29.89,North,5,0.0,2.0,81,0.00,,,0.00,VWS V14.01,2013-10-03 04:02:00,
2013-10-03 00:07:00,64.6,58.7,29.89,North,5,0.0,1.0,81,0.00,,,0.00,VWS V14.01,2013-10-03 04:07:00,
2013-10-03 00:12:00,64.5,58.5,29.89,North,5,0.0,1.0,81,0.00,,,0.00,VWS V14.01,2013-10-03 04:12:00,
2013-10-03 00:17:00,64.5,58.5,29.89,North,5,0.0,1.0,81,0.00,,,0.00,VWS V14.01,2013-10-03 04:17:00,
2013-10-03 00:22:00,64.5,58.5,29.89,North,5,0.0,2.0,81,0.00,,,0.00,VWS V14.01,2013-10-03 04:22:00,
2013-10-03 00:27:00,64.4,58.5,29.89,North,5,1.0,2.0,81,0.00,,,0.00,VWS V14.01,2013-10-03 04:27:00,
2013-10-03 00:30:00,64.5,58.5,29.89,North,5,0.0,2.0,81,0.00,,,0.00,VWS V14.01,2013-10-03 04:30:00,
2013-10-03 00:32:00,64.5,58.5,29.89,North,5,0.0,2.0,81,0.00,,,0.00,VWS V14.01,2013-10-03 04:32:00,
2013-10-03 00:37:00,64.4,58.1,29.90,North,5,0.0,2.0,80,0.00,,,0.00,VWS V14.01,2013-10-03 04:37:00,
2013-10-03 00:42:00,64.4,58.1,29.90,North,5,0.0,2.0,80,0.00,,,0.00,VWS V14.01,2013-10-03 04:42:00,
2013-10-03 00:47:00,64.4,58.1,29.90,North,5,0.0,2.0,80,0.00,,,0.00,VWS V14.01,2013-10-03 04:47:00,
2013-10-03 00:52:00,64.4,58.1,29.90,North,5,0.0,2.0,80,0.00,,,0.00,VWS V14.01,2013-10-03 04:52:00,
2013-10-03 00:57:00,64.4,58.1,29.90,North,5,1.0,2.0,80,0.00,,,0.00,VWS V14.01,2013-10-03 04:57:00,
2013-10-03 01:00:00,64.3,58.0,29.90,North,5,0.0,2.0,80,0.00,,,0.00,VWS V14.01,2013-10-03 05:00:00,
2013-10-03 01:02:00,64.3,58.0,29.90,North,5,0.0,2.0,80,0.00,,,0.00,VWS V14.01,2013-10-03 05:02:00,
2013-10-03 01:07:00,64.2,57.9,29.91,North,5,0.0,2.0,80,0.00,,,0.00,VWS V14.01,2013-10-03 05:07:00,
2013-10-03 01:12:00,64.2,57.9,29.91,North,5,0.0,2.0,80,0.00,,,0.00,VWS V14.01,2013-10-03 05:12:00,
2013-10-03 01:17:00,64.0,57.7,29.91,North,5,0.0,2.0,80,0.00,,,0.00,VWS V14.01,2013-10-03 05:17:00,
2013-10-03 01:22:00,63.9,57.6,29.91,North,5,0.0,3.0,80,0.00,,,0.00,VWS V14.01,2013-10-03 05:22:00,
2013-10-03 01:27:00,63.9,57.6,29.91,North,5,0.0,3.0,80,0.00,,,0.00,VWS V14.01,2013-10-03 05:27:00,
2013-10-03 01:30:00,63.8,57.5,29.92,North,360,0.0,3.0,80,0.00,,,0.00,VWS V14.01,2013-10-03 05:30:00,
2013-10-03 01:32:00,63.8,57.5,29.92,North,360,0.0,3.0,80,0.00,,,0.00,VWS V14.01,2013-10-03 05:32:00,
2013-10-03 01:37:00,63.6,57.3,29.92,North,360,0.0,1.0,80,0.00,,,0.00,VWS V14.01,2013-10-03 05:37:00,
2013-10-03 01:42:00,63.5,57.6,29.92,North,360,0.0,1.0,81,0.00,,,0.00,VWS V14.01,2013-10-03 05:42:00,
2013-10-03 01:47:00,63.3,57.4,29.92,North,360,0.0,2.0,81,0.00,,,0.00,VWS V14.01,2013-10-03 05:47:00,
2013-10-03 01:52:00,63.2,57.3,29.92,North,360,0.0,2.0,81,0.00,,,0.00,VWS V14.01,2013-10-03 05:52:00,
2013-10-03 01:57:00,63.1,57.2,29.92,North,360,0.0,2.0,81,0.00,,,0.00,VWS V14.01,2013-10-03 05:57:00,
2013-10-03 02:00:00,62.7,57.1,29.92,North,360,0.0,2.0,82,0.00,,,0.00,VWS V14.01,2013-10-03 06:00:00,
2013-10-03 02:02:00,62.7,57.1,29.92,North,360,0.0,2.0,82,0.00,,,0.00,VWS V14.01,2013-10-03 06:02:00,
2013-10-03 02:07:00,62.3,57.1,29.92,North,360,0.0,1.0,83,0.00,,,0.00,VWS V14.01,2013-10-03 06:07:00,
2013-10-03 02:12:00,61.9,57.0,29.92,North,360,0.0,3.0,84,0.00,,,0.00,VWS V14.01,2013-10-03 06:12:00,
2013-10-03 02:17:00,61.7,56.8,29.92,North,360,0.0,3.0,84,0.00,,,0.00,VWS V14.01,2013-10-03 06:17:00,
2013-10-03 02:22:00,61.9,57.0,29.92,North,360,0.0,3.0,84,0.00,,,0.00,VWS V14.01,2013-10-03 06:22:00,
2013-10-03 02:27:00,61.9,57.0,29.92,North,360,1.0,3.0,84,0.00,,,0.00,VWS V14.01,2013-10-03 06:27:00,
2013-10-03 02:30:00,61.9,56.7,29.92,North,360,0.0,3.0,83,0.00,,,0.00,VWS V14.01,2013-10-03 06:30:00,
2013-10-03 02:32:00,61.9,56.7,29.92,North,360,1.0,3.0,83,0.00,,,0.00,VWS V14.01,2013-10-03 06:32:00,
2013-10-03 02:37:00,61.9,56.7,29.92,North,360,0.0,1.0,83,0.00,,,0.00,VWS V14.01,2013-10-03 06:37:00,
2013-10-03 02:42:00,61.8,56.6,29.92,North,360,0.0,1.0,83,0.00,,,0.00,VWS V14.01,2013-10-03 06:42:00,
2013-10-03 02:47:00,61.8,56.6,29.92,NNW,346,0.0,4.0,83,0.00,,,0.00,VWS V14.01,2013-10-03 06:47:00,
2013-10-03 02:52:00,61.7,56.5,29.92,NNW,346,0.0,4.0,83,0.00,,,0.00,VWS V14.01,2013-10-03 06:52:00,
2013-10-03 02:57:00,61.6,56.4,29.92,NNW,346,0.0,4.0,83,0.00,,,0.00,VWS V14.01,2013-10-03 06:57:00,
2013-10-03 03:00:00,61.6,56.4,29.92,NNW,342,1.0,5.0,83,0.00,,,0.00,VWS V14.01,2013-10-03 07:00:00,
2013-10-03 03:02:00,61.6,56.4,29.92,NNW,342,0.0,5.0,83,0.00,,,0.00,VWS V14.01,2013-10-03 07:02:00,
2013-10-03 03:07:00,61.5,56.3,29.92,NNW,342,0.0,2.0,83,0.00,,,0.00,VWS V14.01,2013-10-03 07:07:00,
2013-10-03 03:12:00,61.5,56.3,29.92,NNW,342,0.0,2.0,83,0.00,,,0.00,VWS V14.01,2013-10-03 07:12:00,
2013-10-03 03:30:00,60.9,56.0,29.92,NNW,338,0.0,2.0,84,0.00,,,0.00,VWS V14.01,2013-10-03 07:30:00,
2013-10-03 04:00:00,59.7,55.5,29.93,NNW,338,0.0,2.0,86,0.00,,,0.00,VWS V14.01,2013-10-03 08:00:00,
2013-10-03 04:30:00,59.0,55.1,29.94,NNW,338,0.0,2.0,87,0.00,,,0.00,VWS V14.01,2013-10-03 08:30:00,
2013-10-03 05:00:00,59.1,54.6,29.94,NNW,338,0.0,3.0,85,0.00,,,0.00,VWS V14.01,2013-10-03 09:00:00,
2013-10-03 05:30:00,58.9,54.4,29.95,NW,315,1.0,4.0,85,0.00,,,0.00,VWS V14.01,2013-10-03 09:30:00,
2013-10-03 06:00:00,58.5,54.0,29.95,NNW,338,1.0,4.0,85,0.00,,,0.00,VWS V14.01,2013-10-03 10:00:00,
2013-10-03 06:30:00,57.6,53.5,29.96,NNW,338,0.0,2.0,86,0.00,,,0.00,VWS V14.01,2013-10-03 10:30:00,
2013-10-03 07:00:00,56.4,52.9,29.97,NNW,338,0.0,2.0,88,0.00,,,0.00,VWS V14.01,2013-10-03 11:00:00,
2013-10-03 07:30:00,56.6,53.7,29.98,NNW,338,0.0,2.0,90,0.00,,,0.00,VWS V14.01,2013-10-03 11:30:00,
2013-10-03 08:00:00,59.1,55.2,29.99,NNW,338,0.0,2.0,87,0.00,,,0.00,VWS V14.01,2013-10-03 12:00:00,
2013-10-03 08:30:00,62.5,55.9,30.00,NNW,338,1.0,6.0,79,0.00,,,0.00,VWS V14.01,2013-10-03 12:30:00,
2013-10-03 09:00:00,65.9,56.6,30.01,NW,315,1.0,4.0,72,0.00,,,0.00,VWS V14.01,2013-10-03 13:00:00,
2013-10-03 09:30:00,69.1,57.3,30.02,NNW,338,1.0,3.0,66,0.00,,,0.00,VWS V14.01,2013-10-03 13:30:00,
2013-10-03 10:00:00,72.3,57.2,30.02,NNW,338,1.0,3.0,59,0.00,,,0.00,VWS V14.01,2013-10-03 14:00:00,
2013-10-03 10:30:00,73.1,56.0,30.02,NNW,338,1.0,5.0,55,0.00,,,0.00,VWS V14.01,2013-10-03 14:30:00,
2013-10-03 11:00:00,75.5,55.0,30.01,NW,315,1.0,4.0,49,0.00,,,0.00,VWS V14.01,2013-10-03 15:00:00,
2013-10-03 11:30:00,76.4,55.8,30.01,SE,135,1.0,4.0,49,0.00,,,0.00,VWS V14.01,2013-10-03 15:30:00,
2013-10-03 12:00:00,76.7,55.0,30.01,SSE,158,1.0,4.0,47,0.00,,,0.00,VWS V14.01,2013-10-03 16:00:00,
2013-10-03 12:30:00,76.0,56.0,30.00,SE,135,2.0,5.0,50,0.00,,,0.00,VWS V14.01,2013-10-03 16:30:00,
2013-10-03 13:00:00,76.3,55.2,29.99,SE,135,2.0,5.0,48,0.00,,,0.00,VWS V14.01,2013-10-03 17:00:00,
2013-10-03 13:30:00,77.5,51.3,29.98,SE,135,2.0,6.0,40,0.00,,,0.00,VWS V14.01,2013-10-03 17:30:00,
2013-10-03 14:00:00,77.5,53.9,29.97,SE,135,2.0,6.0,44,0.00,,,0.00,VWS V14.01,2013-10-03 18:00:00,
2013-10-03 14:30:00,74.8,57.6,29.96,SSE,158,2.0,7.0,55,0.00,,,0.00,VWS V14.01,2013-10-03 18:30:00,
2013-10-03 15:00:00,74.1,59.3,29.96,SSE,158,2.0,8.0,60,0.00,,,0.00,VWS V14.01,2013-10-03 19:00:00,
2013-10-03 15:30:00,73.3,59.5,29.96,South,180,2.0,7.0,62,0.00,,,0.00,VWS V14.01,2013-10-03 19:30:00,
2013-10-03 16:00:00,72.9,59.6,29.96,SW,225,2.0,11.0,63,0.00,,,0.00,VWS V14.01,2013-10-03 20:00:00,
2013-10-03 16:30:00,70.6,57.8,29.95,SSW,202,2.0,7.0,64,0.00,,,0.00,VWS V14.01,2013-10-03 20:30:00,
2013-10-03 17:00:00,68.7,56.9,29.95,SW,225,2.0,10.0,66,0.00,,,0.00,VWS V14.01,2013-10-03 21:00:00,
2013-10-03 17:30:00,67.8,58.1,29.96,SSW,202,2.0,8.0,71,0.00,,,0.00,VWS V14.01,2013-10-03 21:30:00,
2013-10-03 18:00:00,66.7,57.8,29.96,SSW,202,2.0,7.0,73,0.00,,,0.00,VWS V14.01,2013-10-03 22:00:00,
2013-10-03 18:30:00,67.8,58.1,29.96,SSW,202,2.0,8.0,71,0.00,,,0.00,VWS V14.01,2013-10-03 22:30:00,
2013-10-03 19:00:00,65.1,59.1,29.97,SSE,156,0.0,2.0,81,0.00,,,0.00,VWS V14.01,2013-10-03 23:00:00,
2013-10-03 19:02:00,66.7,57.8,29.96,SSW,202,2.0,7.0,73,0.00,,,0.00,VWS V14.01,2013-10-03 23:02:00,
2013-10-03 19:07:00,65.0,59.0,29.97,ESE,120,2.0,4.0,81,0.00,,,0.00,VWS V14.01,2013-10-03 23:07:00,
2013-10-03 19:12:00,64.9,58.9,29.97,SSW,198,0.0,4.0,81,0.00,,,0.00,VWS V14.01,2013-10-03 23:12:00,
2013-10-03 19:17:00,64.8,59.2,29.97,SSE,163,2.0,4.0,82,0.00,,,0.00,VWS V14.01,2013-10-03 23:17:00,
2013-10-03 19:22:00,64.8,59.2,29.97,South,177,2.0,4.0,82,0.00,,,0.00,VWS V14.01,2013-10-03 23:22:00,
2013-10-03 19:27:00,64.7,59.4,29.97,SSE,149,2.0,4.0,83,0.00,,,0.00,VWS V14.01,2013-10-03 23:27:00,
2013-10-03 19:30:00,64.5,59.6,29.97,South,190,0.0,4.0,84,0.00,,,0.00,VWS V14.01,2013-10-03 23:30:00,
2013-10-03 19:32:00,64.6,59.7,29.97,South,191,3.0,4.0,84,0.00,,,0.00,VWS V14.01,2013-10-03 23:32:00,
2013-10-03 19:37:00,64.5,59.6,29.97,South,182,0.0,2.0,84,0.00,,,0.00,VWS V14.01,2013-10-03 23:37:00,
2013-10-03 19:42:00,64.3,59.4,29.98,South,191,0.0,3.0,84,0.00,,,0.00,VWS V14.01,2013-10-03 23:42:00,
2013-10-03 19:47:00,64.2,58.9,29.98,SSW,194,1.0,3.0,83,0.00,,,0.00,VWS V14.01,2013-10-03 23:47:00,
2013-10-03 19:52:00,64.1,58.8,29.98,SSW,194,0.0,3.0,83,0.00,,,0.00,VWS V14.01,2013-10-03 23:52:00,
2013-10-03 19:57:00,63.9,58.3,29.98,South,183,0.0,3.0,82,0.00,,,0.00,VWS V14.01,2013-10-03 23:57:00,
2013-10-03 20:00:00,63.8,58.2,29.98,South,183,0.0,3.0,82,0.00,,,0.00,VWS V14.01,2013-10-04 00:00:00,
2013-10-03 20:02:00,63.8,58.2,29.98,South,183,0.0,3.0,82,0.00,,,0.00,VWS V14.01,2013-10-04 00:02:00,
2013-10-03 20:07:00,63.7,58.1,29.98,South,183,0.0,1.0,82,0.00,,,0.00,VWS V14.01,2013-10-04 00:07:00,
2013-10-03 20:12:00,63.6,57.7,29.98,South,181,0.0,2.0,81,0.00,,,0.00,VWS V14.01,2013-10-04 00:12:00,
2013-10-03 20:17:00,63.5,57.6,29.98,South,181,0.0,2.0,81,0.00,,,0.00,VWS V14.01,2013-10-04 00:17:00,
2013-10-03 20:22:00,63.4,57.5,29.98,South,181,0.0,3.0,81,0.00,,,0.00,VWS V14.01,2013-10-04 00:22:00,
2013-10-03 20:27:00,63.3,57.4,29.98,South,181,1.0,3.0,81,0.00,,,0.00,VWS V14.01,2013-10-04 00:27:00,
2013-10-03 20:30:00,63.1,57.2,29.98,South,181,0.0,3.0,81,0.00,,,0.00,VWS V14.01,2013-10-04 00:30:00,
2013-10-03 20:32:00,63.1,57.2,29.98,South,181,2.0,3.0,81,0.00,,,0.00,VWS V14.01,2013-10-04 00:32:00,
2013-10-03 20:37:00,63.0,57.1,29.98,South,181,0.0,1.0,81,0.00,,,0.00,VWS V14.01,2013-10-04 00:37:00,
2013-10-03 20:42:00,62.9,57.0,29.98,South,181,0.0,1.0,81,0.00,,,0.00,VWS V14.01,2013-10-04 00:42:00,
2013-10-03 20:47:00,62.7,56.5,29.98,South,181,0.0,1.0,80,0.00,,,0.00,VWS V14.01,2013-10-04 00:47:00,
2013-10-03 20:52:00,62.5,56.2,29.98,South,181,0.0,1.0,80,0.00,,,0.00,VWS V14.01,2013-10-04 00:52:00,
2013-10-03 20:57:00,62.3,56.1,29.98,South,181,0.0,1.0,80,0.00,,,0.00,VWS V14.01,2013-10-04 00:57:00,
2013-10-03 21:00:00,62.1,55.9,29.99,South,181,0.0,1.0,80,0.00,,,0.00,VWS V14.01,2013-10-04 01:00:00,
2013-10-03 21:02:00,62.2,56.0,29.99,South,181,0.0,1.0,80,0.00,,,0.00,VWS V14.01,2013-10-04 01:02:00,
2013-10-03 21:07:00,62.0,55.8,29.98,South,181,0.0,0.0,80,0.00,,,0.00,VWS V14.01,2013-10-04 01:07:00,
2013-10-03 21:12:00,61.8,55.6,29.98,South,181,0.0,0.0,80,0.00,,,0.00,VWS V14.01,2013-10-04 01:12:00,
2013-10-03 21:17:00,61.5,55.3,29.98,South,181,0.0,0.0,80,0.00,,,0.00,VWS V14.01,2013-10-04 01:17:00,
2013-10-03 21:22:00,61.3,55.1,29.99,South,181,0.0,0.0,80,0.00,,,0.00,VWS V14.01,2013-10-04 01:22:00,
2013-10-03 21:27:00,61.1,54.9,29.99,South,181,0.0,0.0,80,0.00,,,0.00,VWS V14.01,2013-10-04 01:27:00,
2013-10-03 21:30:00,60.9,54.7,29.99,South,181,0.0,0.0,80,0.00,,,0.00,VWS V14.01,2013-10-04 01:30:00,
2013-10-03 21:32:00,60.9,54.7,29.99,South,181,0.0,0.0,80,0.00,,,0.00,VWS V14.01,2013-10-04 01:32:00,
2013-10-03 21:37:00,60.7,54.8,29.99,South,181,0.0,0.0,81,0.00,,,0.00,VWS V14.01,2013-10-04 01:37:00,
2013-10-03 21:42:00,60.4,54.5,29.99,South,181,0.0,0.0,81,0.00,,,0.00,VWS V14.01,2013-10-04 01:42:00,
2013-10-03 21:47:00,60.2,54.7,29.99,South,181,0.0,0.0,82,0.00,,,0.00,VWS V14.01,2013-10-04 01:47:00,
2013-10-03 21:52:00,59.9,54.4,29.99,South,181,0.0,0.0,82,0.00,,,0.00,VWS V14.01,2013-10-04 01:52:00,
2013-10-03 21:57:00,59.8,54.3,29.99,South,181,0.0,0.0,82,0.00,,,0.00,VWS V14.01,2013-10-04 01:57:00,
2013-10-03 22:00:00,59.6,54.4,29.99,South,181,0.0,0.0,83,0.00,,,0.00,VWS V14.01,2013-10-04 02:00:00,
2013-10-03 22:02:00,59.6,54.4,29.99,South,181,0.0,0.0,83,0.00,,,0.00,VWS V14.01,2013-10-04 02:02:00,
2013-10-03 22:06:00,59.5,54.3,29.99,South,181,0.0,0.0,83,0.00,,,0.00,VWS V14.01,2013-10-04 02:06:00,
2013-10-03 22:11:00,59.4,54.2,30.00,South,181,0.0,0.0,83,0.00,,,0.00,VWS V14.01,2013-10-04 02:11:00,
2013-10-03 22:16:00,59.4,54.6,29.99,South,181,0.0,0.0,84,0.00,,,0.00,VWS V14.01,2013-10-04 02:16:00,
2013-10-03 22:21:00,59.3,54.5,29.99,South,181,0.0,0.0,84,0.00,,,0.00,VWS V14.01,2013-10-04 02:21:00,
2013-10-03 22:26:00,59.3,54.8,30.00,South,181,0.0,0.0,85,0.00,,,0.00,VWS V14.01,2013-10-04 02:26:00,
2013-10-03 22:30:00,59.4,54.9,30.00,South,181,0.0,0.0,85,0.00,,,0.00,VWS V14.01,2013-10-04 02:30:00,
2013-10-03 22:31:00,59.4,54.9,30.00,South,181,0.0,0.0,85,0.00,,,0.00,VWS V14.01,2013-10-04 02:31:00,
2013-10-03 22:36:00,59.3,54.8,30.00,South,181,0.0,0.0,85,0.00,,,0.00,VWS V14.01,2013-10-04 02:36:00,
2013-10-03 22:41:00,59.3,54.8,30.00,South,181,0.0,0.0,85,0.00,,,0.00,VWS V14.01,2013-10-04 02:41:00,
2013-10-03 22:46:00,59.1,54.6,30.00,South,181,0.0,0.0,85,0.00,,,0.00,VWS V14.01,2013-10-04 02:46:00,
2013-10-03 22:51:00,58.9,54.7,30.00,South,181,0.0,0.0,86,0.00,,,0.00,VWS V14.01,2013-10-04 02:51:00,
2013-10-03 22:56:00,58.7,54.5,30.00,South,181,0.0,0.0,86,0.00,,,0.00,VWS V14.01,2013-10-04 02:56:00,
2013-10-03 23:00:00,58.6,54.4,30.00,South,181,0.0,0.0,86,0.00,,,0.00,VWS V14.01,2013-10-04 03:00:00,
2013-10-03 23:01:00,58.6,54.4,30.00,South,181,0.0,0.0,86,0.00,,,0.00,VWS V14.01,2013-10-04 03:01:00,
2013-10-03 23:06:00,58.4,54.2,30.00,South,181,0.0,0.0,86,0.00,,,0.00,VWS V14.01,2013-10-04 03:06:00,
2013-10-03 23:11:00,58.3,54.5,30.00,South,181,0.0,0.0,87,0.00,,,0.00,VWS V14.01,2013-10-04 03:11:00,
2013-10-03 23:16:00,58.2,54.4,30.00,South,181,0.0,0.0,87,0.00,,,0.00,VWS V14.01,2013-10-04 03:16:00,
2013-10-03 23:21:00,58.1,54.3,30.00,South,181,0.0,0.0,87,0.00,,,0.00,VWS V14.01,2013-10-04 03:21:00,
2013-10-03 23:26:00,57.9,54.1,30.00,South,181,0.0,0.0,87,0.00,,,0.00,VWS V14.01,2013-10-04 03:26:00,
2013-10-03 23:30:00,57.8,54.3,30.00,South,181,0.0,0.0,88,0.00,,,0.00,VWS V14.01,2013-10-04 03:30:00,
2013-10-03 23:31:00,57.8,54.3,30.00,South,181,0.0,0.0,88,0.00,,,0.00,VWS V14.01,2013-10-04 03:31:00,
2013-10-03 23:36:00,57.8,54.3,30.00,South,181,0.0,0.0,88,0.00,,,0.00,VWS V14.01,2013-10-04 03:36:00,
2013-10-03 23:41:00,57.8,54.3,30.00,South,181,0.0,0.0,88,0.00,,,0.00,VWS V14.01,2013-10-04 03:41:00,
2013-10-03 23:46:00,57.7,54.2,30.00,South,181,0.0,0.0,88,0.00,,,0.00,VWS V14.01,2013-10-04 03:46:00,
2013-10-03 23:51:00,57.6,54.4,30.00,South,181,0.0,0.0,89,0.00,,,0.00,VWS V14.01,2013-10-04 03:51:00,
2013-10-03 23:56:00,57.5,54.3,30.00,South,181,0.0,1.0,89,0.00,,,0.00,VWS V14.01,2013-10-04 03:56:00,